- বাংলা English

 ** Phone: +880 29135742, 9123838, 9141437 | FAX: +880 2 8118230, 58152019*   

TAF

TAF VGHS 172300Z 1800/1906 00000KT 2500 BR/DZ SCT010 BKN100
  BECMG 1804/1806 04007KT 4000 HZ SCT015 BKN100
  TEMPO 1808/1812 23025KT 2000 RA/TSRA BKN007 FEW025CB OVC090
  BECMG 1818/1820 VRB03KT 3500 HZ FEW015 SCT100
  BECMG 1823/1901 00000KT 2500 BR SCT010 BKN100
  BECMG 1904/1906 33005KT 4000 HZ SCT015 BKN100=

TAF VGEG 172300Z 1800/1906 00000KT 2000 BR SCT012
  BECMG 1802/1804 05008KT 3200 HZ SCT016 SCT100
  BECMG 1808/1810 33010KT 5000 HZ SCT016 SCT100
  TEMPO 1813/1815 34012KT 2000 RA/TSRA SCT007 FEW025CB OVC090
  BECMG 1816/1818 0000KT 3500 HZ SCT016 SCT100
  BECMG 1900/1902 00000KT 1800 BR SCT012
  BECMG 1903/1905 06008KT 3200 HZ FEW016=